sensor_id;sensor_type;location;lat;lon;timestamp;P1;durP1;ratioP1;P2;durP2;ratioP2
7477;SDS011;3780;42.424;25.636;2022-08-19T00:01:24;7.85;;;6.53;;
7477;SDS011;3780;42.424;25.636;2022-08-19T00:03:52;9.20;;;5.78;;
7477;SDS011;3780;42.424;25.636;2022-08-19T00:06:18;8.10;;;6.45;;
7477;SDS011;3780;42.424;25.636;2022-08-19T00:08:43;9.50;;;6.55;;
7477;SDS011;3780;42.424;25.636;2022-08-19T00:11:10;11.82;;;6.38;;
7477;SDS011;3780;42.424;25.636;2022-08-19T00:13:35;10.93;;;6.75;;
7477;SDS011;3780;42.424;25.636;2022-08-19T00:16:03;8.77;;;6.18;;
7477;SDS011;3780;42.424;25.636;2022-08-19T00:18:31;9.77;;;6.45;;
7477;SDS011;3780;42.424;25.636;2022-08-19T00:20:56;9.20;;;6.50;;
7477;SDS011;3780;42.424;25.636;2022-08-19T00:23:22;7.45;;;6.28;;
7477;SDS011;3780;42.424;25.636;2022-08-19T00:25:48;7.82;;;6.60;;
7477;SDS011;3780;42.424;25.636;2022-08-19T00:28:15;10.75;;;6.45;;
7477;SDS011;3780;42.424;25.636;2022-08-19T00:30:41;8.02;;;6.38;;
7477;SDS011;3780;42.424;25.636;2022-08-19T00:33:07;10.48;;;6.55;;
7477;SDS011;3780;42.424;25.636;2022-08-19T00:35:33;7.90;;;6.20;;
7477;SDS011;3780;42.424;25.636;2022-08-19T00:37:58;10.35;;;6.68;;
7477;SDS011;3780;42.424;25.636;2022-08-19T00:40:24;10.40;;;6.38;;
7477;SDS011;3780;42.424;25.636;2022-08-19T00:42:50;15.13;;;6.57;;
7477;SDS011;3780;42.424;25.636;2022-08-19T00:45:19;9.38;;;6.10;;
7477;SDS011;3780;42.424;25.636;2022-08-19T00:47:46;11.00;;;6.88;;
7477;SDS011;3780;42.424;25.636;2022-08-19T00:50:12;8.90;;;6.43;;
7477;SDS011;3780;42.424;25.636;2022-08-19T00:52:41;8.90;;;6.03;;
7477;SDS011;3780;42.424;25.636;2022-08-19T00:55:10;9.90;;;6.32;;
7477;SDS011;3780;42.424;25.636;2022-08-19T00:57:41;9.02;;;6.70;;
7477;SDS011;3780;42.424;25.636;2022-08-19T01:00:13;10.80;;;6.45;;
7477;SDS011;3780;42.424;25.636;2022-08-19T01:02:41;8.60;;;5.82;;
7477;SDS011;3780;42.424;25.636;2022-08-19T01:05:09;8.90;;;6.20;;
7477;SDS011;3780;42.424;25.636;2022-08-19T01:07:40;9.00;;;6.53;;
7477;SDS011;3780;42.424;25.636;2022-08-19T01:10:09;10.25;;;6.82;;
7477;SDS011;3780;42.424;25.636;2022-08-19T01:12:37;18.50;;;7.25;;
7477;SDS011;3780;42.424;25.636;2022-08-19T01:15:06;11.75;;;7.43;;
7477;SDS011;3780;42.424;25.636;2022-08-19T01:17:34;11.23;;;7.10;;
7477;SDS011;3780;42.424;25.636;2022-08-19T01:20:04;7.50;;;6.65;;
7477;SDS011;3780;42.424;25.636;2022-08-19T01:27:53;9.80;;;6.50;;
7477;SDS011;3780;42.424;25.636;2022-08-19T01:30:20;9.45;;;6.40;;
7477;SDS011;3780;42.424;25.636;2022-08-19T01:32:50;9.07;;;7.68;;
7477;SDS011;3780;42.424;25.636;2022-08-19T01:35:17;9.65;;;6.45;;
7477;SDS011;3780;42.424;25.636;2022-08-19T01:40:09;7.50;;;6.57;;
7477;SDS011;3780;42.424;25.636;2022-08-19T01:42:35;11.40;;;7.18;;
7477;SDS011;3780;42.424;25.636;2022-08-19T01:45:00;9.73;;;6.60;;
7477;SDS011;3780;42.424;25.636;2022-08-19T01:47:26;8.57;;;6.72;;
7477;SDS011;3780;42.424;25.636;2022-08-19T01:49:51;11.43;;;6.15;;
7477;SDS011;3780;42.424;25.636;2022-08-19T01:52:17;10.30;;;6.95;;
7477;SDS011;3780;42.424;25.636;2022-08-19T01:54:42;9.68;;;6.75;;
7477;SDS011;3780;42.424;25.636;2022-08-19T01:57:08;9.88;;;7.43;;
7477;SDS011;3780;42.424;25.636;2022-08-19T01:59:37;9.43;;;6.38;;
7477;SDS011;3780;42.424;25.636;2022-08-19T02:02:04;7.63;;;6.68;;
7477;SDS011;3780;42.424;25.636;2022-08-19T02:04:35;7.38;;;6.57;;
7477;SDS011;3780;42.424;25.636;2022-08-19T02:07:02;11.63;;;7.30;;
7477;SDS011;3780;42.424;25.636;2022-08-19T02:09:28;10.45;;;7.25;;
7477;SDS011;3780;42.424;25.636;2022-08-19T02:11:53;9.93;;;6.72;;
7477;SDS011;3780;42.424;25.636;2022-08-19T02:14:19;11.55;;;7.53;;
7477;SDS011;3780;42.424;25.636;2022-08-19T02:16:44;10.00;;;6.95;;
7477;SDS011;3780;42.424;25.636;2022-08-19T02:19:10;8.63;;;6.95;;
7477;SDS011;3780;42.424;25.636;2022-08-19T02:21:35;8.88;;;7.30;;
7477;SDS011;3780;42.424;25.636;2022-08-19T02:24:01;11.32;;;7.30;;
7477;SDS011;3780;42.424;25.636;2022-08-19T02:26:27;14.90;;;7.65;;
7477;SDS011;3780;42.424;25.636;2022-08-19T02:28:53;10.68;;;7.82;;
7477;SDS011;3780;42.424;25.636;2022-08-19T02:31:20;12.43;;;7.53;;
7477;SDS011;3780;42.424;25.636;2022-08-19T02:33:47;9.75;;;7.43;;
7477;SDS011;3780;42.424;25.636;2022-08-19T02:36:13;9.77;;;7.45;;
7477;SDS011;3780;42.424;25.636;2022-08-19T02:38:40;9.27;;;7.88;;
7477;SDS011;3780;42.424;25.636;2022-08-19T02:41:13;9.50;;;7.13;;
7477;SDS011;3780;42.424;25.636;2022-08-19T02:43:41;10.52;;;6.85;;
7477;SDS011;3780;42.424;25.636;2022-08-19T02:46:26;13.75;;;7.60;;
7477;SDS011;3780;42.424;25.636;2022-08-19T02:48:54;12.40;;;7.18;;
7477;SDS011;3780;42.424;25.636;2022-08-19T02:51:24;15.95;;;9.60;;
7477;SDS011;3780;42.424;25.636;2022-08-19T02:53:51;15.65;;;8.45;;
7477;SDS011;3780;42.424;25.636;2022-08-19T02:56:17;16.90;;;8.63;;
7477;SDS011;3780;42.424;25.636;2022-08-19T02:58:44;9.77;;;7.30;;
7477;SDS011;3780;42.424;25.636;2022-08-19T03:01:10;9.43;;;7.00;;
7477;SDS011;3780;42.424;25.636;2022-08-19T03:03:44;9.55;;;7.63;;
7477;SDS011;3780;42.424;25.636;2022-08-19T03:06:11;12.02;;;7.10;;
7477;SDS011;3780;42.424;25.636;2022-08-19T03:08:39;8.15;;;6.97;;
7477;SDS011;3780;42.424;25.636;2022-08-19T03:11:05;11.93;;;7.90;;
7477;SDS011;3780;42.424;25.636;2022-08-19T03:13:31;12.88;;;7.63;;
7477;SDS011;3780;42.424;25.636;2022-08-19T03:15:57;14.35;;;8.18;;
7477;SDS011;3780;42.424;25.636;2022-08-19T03:18:23;16.15;;;7.32;;
7477;SDS011;3780;42.424;25.636;2022-08-19T03:20:49;12.55;;;7.97;;
7477;SDS011;3780;42.424;25.636;2022-08-19T03:23:19;9.98;;;7.68;;
7477;SDS011;3780;42.424;25.636;2022-08-19T03:25:47;15.18;;;8.73;;
7477;SDS011;3780;42.424;25.636;2022-08-19T03:28:14;15.18;;;8.70;;
7477;SDS011;3780;42.424;25.636;2022-08-19T03:30:41;11.50;;;7.85;;
7477;SDS011;3780;42.424;25.636;2022-08-19T03:33:09;14.77;;;8.65;;
7477;SDS011;3780;42.424;25.636;2022-08-19T03:35:37;17.00;;;8.07;;
7477;SDS011;3780;42.424;25.636;2022-08-19T03:38:05;14.32;;;7.90;;
7477;SDS011;3780;42.424;25.636;2022-08-19T03:40:32;18.08;;;8.02;;
7477;SDS011;3780;42.424;25.636;2022-08-19T03:43:01;24.15;;;8.60;;
7477;SDS011;3780;42.424;25.636;2022-08-19T03:45:26;13.23;;;8.02;;
7477;SDS011;3780;42.424;25.636;2022-08-19T03:47:52;14.02;;;7.70;;
7477;SDS011;3780;42.424;25.636;2022-08-19T03:50:18;10.90;;;7.80;;
7477;SDS011;3780;42.424;25.636;2022-08-19T03:52:47;13.05;;;8.15;;
7477;SDS011;3780;42.424;25.636;2022-08-19T03:55:17;12.13;;;8.52;;
7477;SDS011;3780;42.424;25.636;2022-08-19T03:57:43;11.35;;;7.78;;
7477;SDS011;3780;42.424;25.636;2022-08-19T04:00:10;12.40;;;8.00;;
7477;SDS011;3780;42.424;25.636;2022-08-19T04:02:36;15.15;;;7.68;;
7477;SDS011;3780;42.424;25.636;2022-08-19T04:05:02;11.60;;;7.82;;
7477;SDS011;3780;42.424;25.636;2022-08-19T04:07:27;17.77;;;7.38;;
7477;SDS011;3780;42.424;25.636;2022-08-19T04:09:53;15.85;;;8.35;;
7477;SDS011;3780;42.424;25.636;2022-08-19T04:12:19;12.77;;;7.50;;
7477;SDS011;3780;42.424;25.636;2022-08-19T04:14:45;11.73;;;7.70;;
7477;SDS011;3780;42.424;25.636;2022-08-19T04:17:20;16.55;;;11.48;;
7477;SDS011;3780;42.424;25.636;2022-08-19T04:19:47;14.63;;;10.15;;
7477;SDS011;3780;42.424;25.636;2022-08-19T04:22:12;15.13;;;7.95;;
7477;SDS011;3780;42.424;25.636;2022-08-19T04:24:38;17.60;;;9.32;;
7477;SDS011;3780;42.424;25.636;2022-08-19T04:27:04;15.77;;;8.40;;
7477;SDS011;3780;42.424;25.636;2022-08-19T04:29:30;14.85;;;8.30;;
7477;SDS011;3780;42.424;25.636;2022-08-19T04:31:56;15.05;;;7.80;;
7477;SDS011;3780;42.424;25.636;2022-08-19T04:34:24;12.43;;;8.18;;
7477;SDS011;3780;42.424;25.636;2022-08-19T04:36:52;11.65;;;8.10;;
7477;SDS011;3780;42.424;25.636;2022-08-19T04:39:22;12.10;;;8.38;;
7477;SDS011;3780;42.424;25.636;2022-08-19T04:42:14;16.73;;;8.57;;
7477;SDS011;3780;42.424;25.636;2022-08-19T04:44:59;14.88;;;7.50;;
7477;SDS011;3780;42.424;25.636;2022-08-19T04:47:24;16.05;;;7.30;;
7477;SDS011;3780;42.424;25.636;2022-08-19T04:49:50;21.60;;;8.75;;
7477;SDS011;3780;42.424;25.636;2022-08-19T04:52:15;13.23;;;8.18;;
7477;SDS011;3780;42.424;25.636;2022-08-19T04:54:41;13.20;;;9.02;;
7477;SDS011;3780;42.424;25.636;2022-08-19T04:57:07;16.90;;;8.60;;
7477;SDS011;3780;42.424;25.636;2022-08-19T04:59:35;13.32;;;8.40;;
7477;SDS011;3780;42.424;25.636;2022-08-19T05:02:02;18.13;;;9.27;;
7477;SDS011;3780;42.424;25.636;2022-08-19T05:04:28;32.85;;;9.95;;
7477;SDS011;3780;42.424;25.636;2022-08-19T05:06:56;19.52;;;9.82;;
7477;SDS011;3780;42.424;25.636;2022-08-19T05:09:22;20.85;;;9.85;;
7477;SDS011;3780;42.424;25.636;2022-08-19T05:11:47;15.27;;;8.52;;
7477;SDS011;3780;42.424;25.636;2022-08-19T05:14:16;20.58;;;9.25;;
7477;SDS011;3780;42.424;25.636;2022-08-19T05:16:41;15.23;;;8.27;;
7477;SDS011;3780;42.424;25.636;2022-08-19T05:19:07;21.98;;;9.50;;
7477;SDS011;3780;42.424;25.636;2022-08-19T05:21:51;18.17;;;8.85;;
7477;SDS011;3780;42.424;25.636;2022-08-19T05:24:35;16.33;;;9.00;;
7477;SDS011;3780;42.424;25.636;2022-08-19T05:27:01;14.63;;;8.65;;
7477;SDS011;3780;42.424;25.636;2022-08-19T05:29:29;13.70;;;7.60;;
7477;SDS011;3780;42.424;25.636;2022-08-19T05:31:56;9.63;;;7.22;;
7477;SDS011;3780;42.424;25.636;2022-08-19T05:34:23;18.33;;;11.70;;
7477;SDS011;3780;42.424;25.636;2022-08-19T05:36:52;22.33;;;14.27;;
7477;SDS011;3780;42.424;25.636;2022-08-19T05:39:22;20.52;;;13.38;;
7477;SDS011;3780;42.424;25.636;2022-08-19T05:41:55;14.60;;;9.47;;
7477;SDS011;3780;42.424;25.636;2022-08-19T05:44:25;29.73;;;17.63;;
7477;SDS011;3780;42.424;25.636;2022-08-19T05:46:56;13.43;;;7.77;;
7477;SDS011;3780;42.424;25.636;2022-08-19T05:49:23;15.98;;;7.90;;
7477;SDS011;3780;42.424;25.636;2022-08-19T05:51:50;13.15;;;7.95;;
7477;SDS011;3780;42.424;25.636;2022-08-19T05:54:16;16.67;;;8.07;;
7477;SDS011;3780;42.424;25.636;2022-08-19T05:56:42;13.30;;;7.57;;
7477;SDS011;3780;42.424;25.636;2022-08-19T05:59:10;13.90;;;7.78;;
7477;SDS011;3780;42.424;25.636;2022-08-19T06:01:39;14.85;;;7.68;;
7477;SDS011;3780;42.424;25.636;2022-08-19T06:04:07;14.05;;;7.70;;
7477;SDS011;3780;42.424;25.636;2022-08-19T06:06:33;12.07;;;8.40;;
7477;SDS011;3780;42.424;25.636;2022-08-19T06:09:04;12.70;;;7.40;;
7477;SDS011;3780;42.424;25.636;2022-08-19T06:11:35;10.05;;;7.30;;
7477;SDS011;3780;42.424;25.636;2022-08-19T06:14:10;9.43;;;6.57;;
7477;SDS011;3780;42.424;25.636;2022-08-19T06:19:05;12.32;;;7.20;;
7477;SDS011;3780;42.424;25.636;2022-08-19T06:21:33;9.18;;;6.78;;
7477;SDS011;3780;42.424;25.636;2022-08-19T06:24:02;10.27;;;7.60;;
7477;SDS011;3780;42.424;25.636;2022-08-19T06:26:28;12.93;;;7.10;;
7477;SDS011;3780;42.424;25.636;2022-08-19T06:28:54;12.30;;;7.90;;
7477;SDS011;3780;42.424;25.636;2022-08-19T06:31:22;14.07;;;7.60;;
7477;SDS011;3780;42.424;25.636;2022-08-19T06:33:52;14.10;;;7.53;;
7477;SDS011;3780;42.424;25.636;2022-08-19T06:38:57;12.30;;;7.43;;
7477;SDS011;3780;42.424;25.636;2022-08-19T06:41:24;13.52;;;8.30;;
7477;SDS011;3780;42.424;25.636;2022-08-19T06:43:50;11.40;;;8.25;;
7477;SDS011;3780;42.424;25.636;2022-08-19T06:46:17;9.50;;;7.00;;
7477;SDS011;3780;42.424;25.636;2022-08-19T06:48:43;12.60;;;7.78;;
7477;SDS011;3780;42.424;25.636;2022-08-19T06:51:09;12.40;;;7.45;;
7477;SDS011;3780;42.424;25.636;2022-08-19T06:53:35;10.13;;;6.72;;
7477;SDS011;3780;42.424;25.636;2022-08-19T06:56:01;13.57;;;7.47;;
7477;SDS011;3780;42.424;25.636;2022-08-19T06:58:30;10.57;;;6.95;;
7477;SDS011;3780;42.424;25.636;2022-08-19T07:00:58;12.18;;;7.03;;
7477;SDS011;3780;42.424;25.636;2022-08-19T07:03:27;12.85;;;6.88;;
7477;SDS011;3780;42.424;25.636;2022-08-19T07:05:56;9.77;;;6.82;;
7477;SDS011;3780;42.424;25.636;2022-08-19T07:08:22;10.02;;;6.60;;
7477;SDS011;3780;42.424;25.636;2022-08-19T07:10:49;7.72;;;6.07;;
7477;SDS011;3780;42.424;25.636;2022-08-19T07:13:18;11.52;;;6.75;;
7477;SDS011;3780;42.424;25.636;2022-08-19T07:15:48;9.23;;;6.70;;
7477;SDS011;3780;42.424;25.636;2022-08-19T07:18:16;11.23;;;7.13;;
7477;SDS011;3780;42.424;25.636;2022-08-19T07:20:45;8.27;;;6.53;;
7477;SDS011;3780;42.424;25.636;2022-08-19T07:23:10;10.38;;;6.30;;
7477;SDS011;3780;42.424;25.636;2022-08-19T07:25:37;15.45;;;7.70;;
7477;SDS011;3780;42.424;25.636;2022-08-19T07:28:02;9.70;;;6.97;;
7477;SDS011;3780;42.424;25.636;2022-08-19T07:30:28;10.32;;;6.68;;
7477;SDS011;3780;42.424;25.636;2022-08-19T07:32:54;7.63;;;6.53;;
7477;SDS011;3780;42.424;25.636;2022-08-19T07:35:21;12.82;;;6.20;;
7477;SDS011;3780;42.424;25.636;2022-08-19T07:37:46;8.95;;;6.82;;
7477;SDS011;3780;42.424;25.636;2022-08-19T07:40:12;11.23;;;7.35;;
7477;SDS011;3780;42.424;25.636;2022-08-19T07:42:38;8.60;;;6.22;;
7477;SDS011;3780;42.424;25.636;2022-08-19T07:45:05;13.73;;;7.15;;
7477;SDS011;3780;42.424;25.636;2022-08-19T07:47:31;12.98;;;6.40;;
7477;SDS011;3780;42.424;25.636;2022-08-19T07:49:57;10.57;;;6.63;;
7477;SDS011;3780;42.424;25.636;2022-08-19T07:52:22;10.82;;;6.88;;
7477;SDS011;3780;42.424;25.636;2022-08-19T07:54:48;9.77;;;6.40;;
7477;SDS011;3780;42.424;25.636;2022-08-19T07:57:14;10.82;;;6.95;;
7477;SDS011;3780;42.424;25.636;2022-08-19T07:59:40;8.18;;;6.47;;
7477;SDS011;3780;42.424;25.636;2022-08-19T08:02:06;9.77;;;6.70;;
7477;SDS011;3780;42.424;25.636;2022-08-19T08:04:33;10.27;;;6.72;;
7477;SDS011;3780;42.424;25.636;2022-08-19T08:07:17;13.23;;;6.95;;
7477;SDS011;3780;42.424;25.636;2022-08-19T08:10:02;8.70;;;7.13;;
7477;SDS011;3780;42.424;25.636;2022-08-19T08:12:32;10.95;;;6.93;;
7477;SDS011;3780;42.424;25.636;2022-08-19T08:15:04;11.15;;;6.32;;
7477;SDS011;3780;42.424;25.636;2022-08-19T08:17:32;8.65;;;6.40;;
7477;SDS011;3780;42.424;25.636;2022-08-19T08:19:58;12.20;;;6.40;;
7477;SDS011;3780;42.424;25.636;2022-08-19T08:22:24;13.50;;;6.90;;
7477;SDS011;3780;42.424;25.636;2022-08-19T08:25:16;11.32;;;6.55;;
7477;SDS011;3780;42.424;25.636;2022-08-19T08:27:45;10.95;;;6.45;;
7477;SDS011;3780;42.424;25.636;2022-08-19T08:30:22;10.45;;;7.00;;
7477;SDS011;3780;42.424;25.636;2022-08-19T08:32:48;8.90;;;6.70;;
7477;SDS011;3780;42.424;25.636;2022-08-19T08:35:15;9.65;;;5.82;;
7477;SDS011;3780;42.424;25.636;2022-08-19T08:37:43;11.70;;;6.50;;
7477;SDS011;3780;42.424;25.636;2022-08-19T08:40:57;12.65;;;6.13;;
7477;SDS011;3780;42.424;25.636;2022-08-19T08:48:20;7.13;;;5.80;;
7477;SDS011;3780;42.424;25.636;2022-08-19T08:50:58;9.18;;;6.25;;
7477;SDS011;3780;42.424;25.636;2022-08-19T08:53:25;9.10;;;5.95;;
7477;SDS011;3780;42.424;25.636;2022-08-19T08:55:52;7.95;;;6.45;;
7477;SDS011;3780;42.424;25.636;2022-08-19T08:58:24;10.90;;;7.07;;
7477;SDS011;3780;42.424;25.636;2022-08-19T09:00:56;10.18;;;6.43;;
7477;SDS011;3780;42.424;25.636;2022-08-19T09:03:23;9.15;;;6.53;;
7477;SDS011;3780;42.424;25.636;2022-08-19T09:06:07;9.40;;;6.80;;
7477;SDS011;3780;42.424;25.636;2022-08-19T09:17:02;8.25;;;4.85;;
7477;SDS011;3780;42.424;25.636;2022-08-19T09:19:28;8.80;;;4.70;;
7477;SDS011;3780;42.424;25.636;2022-08-19T09:21:54;8.63;;;4.70;;
7477;SDS011;3780;42.424;25.636;2022-08-19T09:24:20;7.38;;;5.22;;
7477;SDS011;3780;42.424;25.636;2022-08-19T09:26:46;8.48;;;6.43;;
7477;SDS011;3780;42.424;25.636;2022-08-19T09:29:11;6.45;;;5.45;;
7477;SDS011;3780;42.424;25.636;2022-08-19T09:31:37;7.57;;;4.57;;
7477;SDS011;3780;42.424;25.636;2022-08-19T09:34:03;11.93;;;5.55;;
7477;SDS011;3780;42.424;25.636;2022-08-19T09:36:30;5.25;;;4.35;;
7477;SDS011;3780;42.424;25.636;2022-08-19T09:39:02;6.38;;;4.68;;
7477;SDS011;3780;42.424;25.636;2022-08-19T09:41:29;9.73;;;4.97;;
7477;SDS011;3780;42.424;25.636;2022-08-19T09:43:55;4.45;;;4.05;;
7477;SDS011;3780;42.424;25.636;2022-08-19T09:46:22;6.50;;;4.55;;
7477;SDS011;3780;42.424;25.636;2022-08-19T09:48:51;6.63;;;4.38;;
7477;SDS011;3780;42.424;25.636;2022-08-19T09:51:19;7.05;;;4.63;;
7477;SDS011;3780;42.424;25.636;2022-08-19T09:53:47;4.68;;;4.28;;
7477;SDS011;3780;42.424;25.636;2022-08-19T09:56:16;6.88;;;4.63;;
7477;SDS011;3780;42.424;25.636;2022-08-19T09:58:43;7.95;;;3.97;;
7477;SDS011;3780;42.424;25.636;2022-08-19T10:01:14;5.70;;;4.05;;
7477;SDS011;3780;42.424;25.636;2022-08-19T10:03:41;5.47;;;3.72;;
7477;SDS011;3780;42.424;25.636;2022-08-19T10:06:07;6.60;;;3.90;;
7477;SDS011;3780;42.424;25.636;2022-08-19T10:08:35;14.95;;;4.05;;
7477;SDS011;3780;42.424;25.636;2022-08-19T10:11:02;7.35;;;4.45;;
7477;SDS011;3780;42.424;25.636;2022-08-19T10:13:30;4.65;;;4.25;;
7477;SDS011;3780;42.424;25.636;2022-08-19T10:16:02;8.00;;;4.28;;
7477;SDS011;3780;42.424;25.636;2022-08-19T10:18:31;4.00;;;3.45;;
7477;SDS011;3780;42.424;25.636;2022-08-19T10:21:09;8.75;;;4.10;;
7477;SDS011;3780;42.424;25.636;2022-08-19T10:23:40;5.40;;;3.80;;
7477;SDS011;3780;42.424;25.636;2022-08-19T10:26:13;6.43;;;3.83;;
7477;SDS011;3780;42.424;25.636;2022-08-19T10:28:40;4.30;;;3.90;;
7477;SDS011;3780;42.424;25.636;2022-08-19T10:31:18;5.20;;;4.10;;
7477;SDS011;3780;42.424;25.636;2022-08-19T10:33:47;4.57;;;3.88;;
7477;SDS011;3780;42.424;25.636;2022-08-19T10:36:14;9.00;;;4.57;;
7477;SDS011;3780;42.424;25.636;2022-08-19T10:38:44;8.25;;;5.25;;
7477;SDS011;3780;42.424;25.636;2022-08-19T10:43:45;6.53;;;4.18;;
7477;SDS011;3780;42.424;25.636;2022-08-19T10:46:12;4.63;;;4.07;;
7477;SDS011;3780;42.424;25.636;2022-08-19T10:48:40;5.40;;;4.78;;
7477;SDS011;3780;42.424;25.636;2022-08-19T10:51:07;8.10;;;3.60;;
7477;SDS011;3780;42.424;25.636;2022-08-19T10:53:52;8.07;;;4.30;;
7477;SDS011;3780;42.424;25.636;2022-08-19T10:56:17;9.52;;;4.28;;
7477;SDS011;3780;42.424;25.636;2022-08-19T10:59:02;6.47;;;3.95;;
7477;SDS011;3780;42.424;25.636;2022-08-19T11:01:29;10.65;;;4.25;;
7477;SDS011;3780;42.424;25.636;2022-08-19T11:03:58;6.55;;;4.07;;
7477;SDS011;3780;42.424;25.636;2022-08-19T11:06:25;7.07;;;4.78;;
7477;SDS011;3780;42.424;25.636;2022-08-19T11:08:54;6.43;;;4.10;;
7477;SDS011;3780;42.424;25.636;2022-08-19T11:11:20;7.28;;;5.25;;
7477;SDS011;3780;42.424;25.636;2022-08-19T11:13:46;7.05;;;4.38;;
7477;SDS011;3780;42.424;25.636;2022-08-19T11:16:19;4.18;;;3.83;;
7477;SDS011;3780;42.424;25.636;2022-08-19T11:18:50;6.97;;;3.63;;
7477;SDS011;3780;42.424;25.636;2022-08-19T11:21:22;6.80;;;3.92;;
7477;SDS011;3780;42.424;25.636;2022-08-19T11:23:51;5.13;;;3.83;;
7477;SDS011;3780;42.424;25.636;2022-08-19T11:26:19;4.80;;;4.35;;
7477;SDS011;3780;42.424;25.636;2022-08-19T11:28:46;4.43;;;4.03;;
7477;SDS011;3780;42.424;25.636;2022-08-19T11:31:19;7.22;;;3.90;;
7477;SDS011;3780;42.424;25.636;2022-08-19T11:33:46;6.60;;;3.78;;
7477;SDS011;3780;42.424;25.636;2022-08-19T11:36:15;4.60;;;3.33;;
7477;SDS011;3780;42.424;25.636;2022-08-19T11:38:41;5.63;;;4.22;;
7477;SDS011;3780;42.424;25.636;2022-08-19T11:41:07;8.27;;;3.97;;
7477;SDS011;3780;42.424;25.636;2022-08-19T11:43:34;5.30;;;4.43;;
7477;SDS011;3780;42.424;25.636;2022-08-19T11:46:03;7.43;;;3.67;;
7477;SDS011;3780;42.424;25.636;2022-08-19T11:48:32;4.80;;;3.63;;
7477;SDS011;3780;42.424;25.636;2022-08-19T11:50:58;5.28;;;3.10;;
7477;SDS011;3780;42.424;25.636;2022-08-19T11:53:23;3.53;;;3.22;;
7477;SDS011;3780;42.424;25.636;2022-08-19T11:55:49;7.18;;;3.85;;
7477;SDS011;3780;42.424;25.636;2022-08-19T11:58:20;3.95;;;3.28;;
7477;SDS011;3780;42.424;25.636;2022-08-19T12:00:47;3.88;;;3.40;;
7477;SDS011;3780;42.424;25.636;2022-08-19T12:03:13;5.15;;;3.75;;
7477;SDS011;3780;42.424;25.636;2022-08-19T12:05:39;6.80;;;3.70;;
7477;SDS011;3780;42.424;25.636;2022-08-19T12:08:06;13.98;;;12.57;;
7477;SDS011;3780;42.424;25.636;2022-08-19T12:10:32;12.45;;;4.60;;
7477;SDS011;3780;42.424;25.636;2022-08-19T12:13:00;4.72;;;4.30;;
7477;SDS011;3780;42.424;25.636;2022-08-19T12:15:26;4.70;;;3.58;;
7477;SDS011;3780;42.424;25.636;2022-08-19T12:17:54;4.43;;;3.50;;
7477;SDS011;3780;42.424;25.636;2022-08-19T12:20:21;9.57;;;4.10;;
7477;SDS011;3780;42.424;25.636;2022-08-19T12:22:48;4.85;;;3.75;;
7477;SDS011;3780;42.424;25.636;2022-08-19T12:25:14;6.00;;;3.90;;
7477;SDS011;3780;42.424;25.636;2022-08-19T12:27:40;4.60;;;3.60;;
7477;SDS011;3780;42.424;25.636;2022-08-19T12:30:06;5.07;;;3.83;;
7477;SDS011;3780;42.424;25.636;2022-08-19T12:32:34;5.20;;;3.35;;
7477;SDS011;3780;42.424;25.636;2022-08-19T12:35:00;3.97;;;3.25;;
7477;SDS011;3780;42.424;25.636;2022-08-19T12:37:26;6.88;;;3.33;;
7477;SDS011;3780;42.424;25.636;2022-08-19T12:39:51;6.20;;;3.50;;
7477;SDS011;3780;42.424;25.636;2022-08-19T12:42:17;9.85;;;3.63;;
7477;SDS011;3780;42.424;25.636;2022-08-19T12:44:43;7.05;;;3.60;;
7477;SDS011;3780;42.424;25.636;2022-08-19T12:47:10;3.90;;;3.60;;
7477;SDS011;3780;42.424;25.636;2022-08-19T12:49:37;4.28;;;3.67;;
7477;SDS011;3780;42.424;25.636;2022-08-19T12:52:07;6.50;;;3.70;;
7477;SDS011;3780;42.424;25.636;2022-08-19T12:57:00;5.85;;;3.33;;
7477;SDS011;3780;42.424;25.636;2022-08-19T12:59:29;6.13;;;3.25;;
7477;SDS011;3780;42.424;25.636;2022-08-19T13:01:55;8.32;;;3.47;;
7477;SDS011;3780;42.424;25.636;2022-08-19T13:04:20;4.68;;;3.38;;
7477;SDS011;3780;42.424;25.636;2022-08-19T13:06:46;4.53;;;3.47;;
7477;SDS011;3780;42.424;25.636;2022-08-19T13:09:11;4.45;;;3.40;;
7477;SDS011;3780;42.424;25.636;2022-08-19T13:11:37;6.47;;;3.33;;
7477;SDS011;3780;42.424;25.636;2022-08-19T13:14:02;5.72;;;3.47;;
7477;SDS011;3780;42.424;25.636;2022-08-19T13:16:29;7.07;;;3.63;;
7477;SDS011;3780;42.424;25.636;2022-08-19T13:18:55;7.15;;;3.55;;
7477;SDS011;3780;42.424;25.636;2022-08-19T13:21:24;4.97;;;3.45;;
7477;SDS011;3780;42.424;25.636;2022-08-19T13:23:53;8.20;;;3.80;;
7477;SDS011;3780;42.424;25.636;2022-08-19T13:26:19;5.80;;;4.20;;
7477;SDS011;3780;42.424;25.636;2022-08-19T13:28:45;3.97;;;3.55;;
7477;SDS011;3780;42.424;25.636;2022-08-19T13:31:30;5.65;;;3.83;;
7477;SDS011;3780;42.424;25.636;2022-08-19T13:34:17;4.35;;;3.58;;
7477;SDS011;3780;42.424;25.636;2022-08-19T13:36:45;5.22;;;4.30;;
7477;SDS011;3780;42.424;25.636;2022-08-19T13:39:10;5.72;;;3.60;;
7477;SDS011;3780;42.424;25.636;2022-08-19T13:41:36;6.45;;;4.28;;
7477;SDS011;3780;42.424;25.636;2022-08-19T13:44:03;14.02;;;4.78;;
7477;SDS011;3780;42.424;25.636;2022-08-19T13:46:30;7.40;;;4.30;;
7477;SDS011;3780;42.424;25.636;2022-08-19T13:48:56;6.57;;;3.63;;
7477;SDS011;3780;42.424;25.636;2022-08-19T13:51:22;5.25;;;3.70;;
7477;SDS011;3780;42.424;25.636;2022-08-19T13:53:48;6.75;;;3.67;;
7477;SDS011;3780;42.424;25.636;2022-08-19T13:56:17;7.32;;;4.18;;
7477;SDS011;3780;42.424;25.636;2022-08-19T13:58:44;4.75;;;3.47;;
7477;SDS011;3780;42.424;25.636;2022-08-19T14:01:10;10.23;;;4.68;;
7477;SDS011;3780;42.424;25.636;2022-08-19T14:03:36;7.97;;;5.13;;
7477;SDS011;3780;42.424;25.636;2022-08-19T14:06:02;7.60;;;4.22;;
7477;SDS011;3780;42.424;25.636;2022-08-19T14:08:28;6.88;;;4.00;;
7477;SDS011;3780;42.424;25.636;2022-08-19T14:10:57;6.05;;;3.90;;
7477;SDS011;3780;42.424;25.636;2022-08-19T14:13:23;10.02;;;4.57;;
7477;SDS011;3780;42.424;25.636;2022-08-19T14:15:49;6.35;;;4.60;;
7477;SDS011;3780;42.424;25.636;2022-08-19T14:18:15;5.65;;;3.90;;
7477;SDS011;3780;42.424;25.636;2022-08-19T14:20:42;8.02;;;4.05;;
7477;SDS011;3780;42.424;25.636;2022-08-19T14:23:08;7.50;;;3.97;;
7477;SDS011;3780;42.424;25.636;2022-08-19T14:25:33;6.07;;;3.80;;
7477;SDS011;3780;42.424;25.636;2022-08-19T14:27:59;11.07;;;4.90;;
7477;SDS011;3780;42.424;25.636;2022-08-19T14:30:30;10.95;;;4.38;;
7477;SDS011;3780;42.424;25.636;2022-08-19T14:32:58;4.82;;;4.13;;
7477;SDS011;3780;42.424;25.636;2022-08-19T14:35:25;7.25;;;3.83;;
7477;SDS011;3780;42.424;25.636;2022-08-19T14:37:52;5.60;;;3.65;;
7477;SDS011;3780;42.424;25.636;2022-08-19T14:40:24;4.10;;;3.55;;
7477;SDS011;3780;42.424;25.636;2022-08-19T14:42:58;5.45;;;3.65;;
7477;SDS011;3780;42.424;25.636;2022-08-19T14:45:29;6.07;;;3.85;;
7477;SDS011;3780;42.424;25.636;2022-08-19T14:47:56;5.45;;;3.70;;
7477;SDS011;3780;42.424;25.636;2022-08-19T14:50:22;7.88;;;4.30;;
7477;SDS011;3780;42.424;25.636;2022-08-19T14:52:48;9.48;;;4.18;;
7477;SDS011;3780;42.424;25.636;2022-08-19T14:55:17;7.00;;;4.03;;
7477;SDS011;3780;42.424;25.636;2022-08-19T14:57:43;6.68;;;4.28;;
7477;SDS011;3780;42.424;25.636;2022-08-19T15:00:09;6.07;;;4.45;;
7477;SDS011;3780;42.424;25.636;2022-08-19T15:02:39;7.95;;;4.35;;
7477;SDS011;3780;42.424;25.636;2022-08-19T15:05:05;6.30;;;3.67;;
7477;SDS011;3780;42.424;25.636;2022-08-19T15:07:31;6.95;;;4.05;;
7477;SDS011;3780;42.424;25.636;2022-08-19T15:09:57;7.15;;;3.85;;
7477;SDS011;3780;42.424;25.636;2022-08-19T15:12:23;5.60;;;4.13;;
7477;SDS011;3780;42.424;25.636;2022-08-19T15:14:49;7.50;;;4.50;;
7477;SDS011;3780;42.424;25.636;2022-08-19T15:17:15;8.20;;;4.20;;
7477;SDS011;3780;42.424;25.636;2022-08-19T15:19:42;11.75;;;5.05;;
7477;SDS011;3780;42.424;25.636;2022-08-19T15:22:08;5.60;;;3.72;;
7477;SDS011;3780;42.424;25.636;2022-08-19T15:24:35;7.55;;;4.35;;
7477;SDS011;3780;42.424;25.636;2022-08-19T15:27:01;7.07;;;3.55;;
7477;SDS011;3780;42.424;25.636;2022-08-19T15:29:27;7.22;;;4.40;;
7477;SDS011;3780;42.424;25.636;2022-08-19T15:31:53;8.45;;;4.10;;